Time;durP1;ratioP1;P1;durP2;ratioP2;P2;SDS_P1;SDS_P2;PMS_P1;PMS_P2;Temp;Humidity;BMP_temperature;BMP_pressure;BME280_temperature;BME280_humidity;BME280_pressure;Samples;Min_cycle;Max_cycle;Signal;HPM_P1;HPM_P2
2022/12/21 00:01:40;;;;;;;12.57;6.25;;;7.30;99.90;;;;;;5044453;28;20055;-85
2022/12/21 00:04:50;;;;;;;;;;;;;;;;;;;;;
2022/12/21 00:08:16;;;;;;;10.15;4.68;;;7.30;99.90;;;;;;5050527;28;20540;-85
2022/12/21 00:11:38;;;;;;;;;;;;;;;;;;;;;
2022/12/21 00:14:50;;;;;;;10.45;4.13;;;7.20;99.90;;;;;;5050883;28;20128;-86
2022/12/21 00:17:58;;;;;;;8.00;5.07;;;7.20;99.90;;;;;;5013878;28;20046;-85
2022/12/21 00:21:26;;;;;;;;;;;;;;;;;;;;;
2022/12/21 00:24:45;;;;;;;9.38;3.88;;;7.10;99.90;;;;;;5014681;28;20054;-86
2022/12/21 00:28:00;;;;;;;;;;;;;;;;;;;;;
2022/12/21 00:31:24;;;;;;;123.63;115.82;;;7.00;99.90;;;;;;5014624;28;20555;-86
2022/12/21 00:34:46;;;;;;;;;;;;;;;;;;;;;
2022/12/21 00:37:58;;;;;;;;;;;;;;;;;;;;;
2022/12/21 00:40:57;;;;;;;23.33;21.30;;;6.90;99.90;;;;;;5016151;28;20466;-85
2022/12/21 00:44:25;;;;;;;25.33;23.13;;;6.90;99.90;;;;;;5034397;28;20415;-86
2022/12/21 00:47:16;;;;;;;47.45;44.55;;;6.70;99.90;;;;;;5053919;28;20045;-86
2022/12/21 00:50:30;;;;;;;191.90;180.27;;;6.30;99.90;;;;;;5054088;28;20528;-86
2022/12/21 00:53:50;;;;;;;128.70;121.45;;;6.70;99.90;;;;;;5053764;28;20544;-86
2022/12/21 00:57:14;;;;;;;;;;;;;;;;;;;;;
2022/12/21 01:00:32;;;;;;;;;;;;;;;;;;;;;
2022/12/21 01:03:56;;;;;;;;;;;;;;;;;;;;;
2022/12/21 01:07:20;;;;;;;;;;;;;;;;;;;;;
2022/12/21 01:10:44;;;;;;;;;;;;;;;;;;;;;
2022/12/21 01:14:02;;;;;;;57.83;54.38;;;6.50;99.90;;;;;;5049477;28;20045;-86
2022/12/21 01:17:30;;;;;;;;;;;;;;;;;;;;;
2022/12/21 01:20:20;;;;;;;84.32;79.30;;;6.20;99.90;;;;;;5053458;28;20045;-85
2022/12/21 01:23:38;;;;;;;;;;;;;;;;;;;;;
2022/12/21 01:27:14;;;;;;;;;;;;;;;;;;;;;
2022/12/21 01:30:32;;;;;;;;;;;;;;;;;;;;;
2022/12/21 01:33:50;;;;;;;430.90;358.90;;;6.50;99.90;;;;;;5053020;28;20053;-85
2022/12/21 01:37:01;;;;;;;;;;;;;;;;;;;;;
2022/12/21 01:40:12;;;;;;;230.65;207.05;;;6.40;99.90;;;;;;5052049;28;20080;-83
2022/12/21 01:43:24;;;;;;;;;;;;;;;;;;;;;
2022/12/21 01:47:16;;;;;;;;;;;;;;;;;;;;;
2022/12/21 01:50:54;;;;;;;;;;;;;;;;;;;;;
2022/12/21 01:54:02;;;;;;;393.98;317.63;;;6.40;99.90;;;;;;5016091;28;20054;-85
2022/12/21 01:57:26;;;;;;;319.00;293.48;;;6.40;99.90;;;;;;5032697;28;20056;-86
2022/12/21 02:00:36;;;;;;;;;;;;;;;;;;;;;
2022/12/21 02:04:04;;;;;;;;;;;;;;;;;;;;;
2022/12/21 02:07:17;;;;;;;124.88;117.90;;;6.30;99.90;;;;;;5032656;28;20120;-85
2022/12/21 02:10:50;;;;;;;;;;;;;;;;;;;;;
2022/12/21 02:14:21;;;;;;;193.13;182.15;;;6.30;99.90;;;;;;5042678;28;20525;-86
2022/12/21 02:17:36;;;;;;;157.35;142.80;;;6.30;99.90;;;;;;5018982;28;20055;-86
2022/12/21 02:20:48;;;;;;;;;;;;;;;;;;;;;
2022/12/21 02:24:22;;;;;;;9.07;4.35;;;6.50;99.90;;;;;;5094357;28;20052;-84
2022/12/21 02:28:04;;;;;;;197.00;180.88;;;6.30;99.90;;;;;;5075582;28;20484;-85
2022/12/21 02:31:38;;;;;;;;;;;;;;;;;;;;;
2022/12/21 02:35:25;;;;;;;191.65;176.80;;;6.20;99.90;;;;;;5096856;28;20079;-85
2022/12/21 02:39:01;;;;;;;288.40;267.45;;;6.10;99.90;;;;;;5051632;28;20053;-86
2022/12/21 02:46:02;;;;;;;339.75;312.75;;;5.50;99.90;;;;;;5050842;28;20053;-85
2022/12/21 02:49:01;;;;;;;354.77;325.45;;;6.10;99.90;;;;;;5051962;28;20045;-86
2022/12/21 02:52:48;;;;;;;;;;;;;;;;;;;;;
2022/12/21 02:56:12;;;;;;;278.25;262.35;;;6.10;99.90;;;;;;5051505;28;20049;-86
2022/12/21 02:59:08;;;;;;;270.73;254.90;;;6.10;99.90;;;;;;5051615;28;20037;-85
2022/12/21 03:02:26;;;;;;;7.38;3.40;;;6.10;99.90;;;;;;5029969;28;20052;-85
2022/12/21 03:05:46;;;;;;;7.18;5.30;;;6.00;99.90;;;;;;5030314;28;20046;-85
2022/12/21 03:09:02;;;;;;;6.50;4.13;;;6.00;99.90;;;;;;5033507;28;20049;-85
2022/12/21 03:12:38;;;;;;;;;;;;;;;;;;;;;
2022/12/21 03:16:14;;;;;;;64.47;58.78;;;6.00;99.90;;;;;;5113651;28;20404;-84
2022/12/21 03:19:32;;;;;;;5.47;3.95;;;5.90;99.90;;;;;;5112616;28;20043;-85
2022/12/21 03:23:10;;;;;;;;;;;;;;;;;;;;;
2022/12/21 03:26:28;;;;;;;5.65;2.63;;;5.90;99.90;;;;;;5113752;28;20055;-84
2022/12/21 03:29:40;;;;;;;12.38;11.43;;;5.90;99.90;;;;;;5114131;28;20047;-84
2022/12/21 03:32:48;;;;;;;;;;;;;;;;;;;;;
2022/12/21 03:36:26;;;;;;;;;;;;;;;;;;;;;
2022/12/21 03:40:03;;;;;;;25.38;22.02;;;5.80;99.90;;;;;;5113434;28;20050;-85
2022/12/21 03:43:46;;;;;;;;;;;;;;;;;;;;;
2022/12/21 03:47:24;;;;;;;;;;;;;;;;;;;;;
2022/12/21 03:50:58;;;;;;;;;;;;;;;;;;;;;
2022/12/21 03:54:26;;;;;;;3.33;1.60;;;5.70;99.90;;;;;;5133745;28;20047;-85
2022/12/21 03:57:38;;;;;;;;;;;;;;;;;;;;;
2022/12/21 04:01:02;;;;;;;;;;;;;;;;;;;;;
2022/12/21 04:04:18;;;;;;;;;;;;;;;;;;;;;
2022/12/21 04:07:58;;;;;;;;;;;;;;;;;;;;;
2022/12/21 04:14:48;;;;;;;;;;;;;;;;;;;;;
2022/12/21 04:18:08;;;;;;;;;;;;;;;;;;;;;
2022/12/21 04:21:36;;;;;;;3.85;1.73;;;5.70;99.90;;;;;;5133820;28;20039;-85
2022/12/21 04:28:34;;;;;;;4.38;1.85;;;5.60;99.90;;;;;;5030362;28;20379;-85
2022/12/21 04:31:58;;;;;;;;;;;;;;;;;;;;;
2022/12/21 04:35:24;;;;;;;;;;;;;;;;;;;;;
2022/12/21 04:38:39;;;;;;;4.10;1.40;;;5.60;99.90;;;;;;5030420;28;20136;-85
2022/12/21 04:42:12;;;;;;;3.67;1.75;;;6.00;99.90;;;;;;5030617;28;20041;-84
2022/12/21 04:44:49;;;;;;;64.30;60.65;;;5.70;99.90;;;;;;5028567;28;20127;-84
2022/12/21 04:48:15;;;;;;;;;;;;;;;;;;;;;
2022/12/21 04:51:50;;;;;;;5.85;2.38;;;5.60;99.90;;;;;;5030382;28;20049;-85
2022/12/21 04:55:26;;;;;;;;;;;;;;;;;;;;;
2022/12/21 04:58:32;;;;;;;;;;;;;;;;;;;;;
2022/12/21 05:01:52;;;;;;;5.38;1.95;;;5.60;99.90;;;;;;5032525;28;20045;-85
2022/12/21 05:05:26;;;;;;;3.22;1.50;;;5.50;99.90;;;;;;5076357;28;20142;-86
2022/12/21 05:08:49;;;;;;;;;;;;;;;;;;;;;
2022/12/21 05:11:52;;;;;;;;;;;;;;;;;;;;;
2022/12/21 05:15:16;;;;;;;;;;;;;;;;;;;;;
2022/12/21 05:18:56;;;;;;;;;;;;;;;;;;;;;
2022/12/21 05:21:38;;;;;;;2.95;1.40;;;5.50;99.90;;;;;;5081502;27;20059;-85
2022/12/21 05:24:58;;;;;;;3.30;1.70;;;5.60;99.90;;;;;;5114542;28;20048;-85
2022/12/21 05:28:16;;;;;;;;;;;;;;;;;;;;;
2022/12/21 05:31:34;;;;;;;;;;;;;;;;;;;;;
2022/12/21 05:34:53;;;;;;;;;;;;;;;;;;;;;
2022/12/21 05:38:00;;;;;;;3.53;2.08;;;5.60;99.90;;;;;;5134878;27;20043;-85
2022/12/21 05:41:16;;;;;;;3.08;1.42;;;5.60;99.90;;;;;;5135021;27;20051;-85
2022/12/21 05:44:34;;;;;;;49.42;46.90;;;5.60;99.90;;;;;;5072705;28;20480;-85
2022/12/21 05:47:59;;;;;;;172.40;161.00;;;5.60;99.90;;;;;;5071292;28;20064;-83
2022/12/21 05:51:08;;;;;;;527.25;356.63;;;5.60;99.90;;;;;;5071646;28;20103;-84
2022/12/21 05:54:20;;;;;;;;;;;;;;;;;;;;;
2022/12/21 05:58:00;;;;;;;4.82;1.23;;;5.60;99.90;;;;;;5044284;28;20057;-83
2022/12/21 06:01:28;;;;;;;;;;;;;;;;;;;;;
2022/12/21 06:04:43;;;;;;;5.00;1.50;;;5.60;99.90;;;;;;5031775;28;20124;-83
2022/12/21 06:08:12;;;;;;;;;;;;;;;;;;;;;
2022/12/21 06:10:59;;;;;;;5.22;2.47;;;5.60;99.90;;;;;;5018868;28;20057;-84
2022/12/21 06:13:54;;;;;;;;;;;5.70;99.90;;;;;;5052005;28;20049;-84
2022/12/21 06:17:10;;;;;;;28.10;25.38;;;5.60;99.90;;;;;;5091300;28;19961;-84
2022/12/21 06:20:36;;;;;;;3.80;1.30;;;5.60;99.90;;;;;;5092430;28;20417;-84
2022/12/21 06:24:06;;;;;;;3.88;1.38;;;5.60;99.90;;;;;;5092508;28;20500;-84
2022/12/21 06:27:22;;;;;;;;;;;;;;;;;;;;;
2022/12/21 06:30:30;;;;;;;2.40;0.82;;;5.60;99.90;;;;;;5082462;27;20043;-84
2022/12/21 06:33:36;;;;;;;3.20;1.17;;;5.60;99.90;;;;;;5130882;27;20369;-83
2022/12/21 06:36:50;;;;;;;4.40;1.40;;;5.60;99.90;;;;;;5072188;28;20059;-83
2022/12/21 06:40:08;;;;;;;;;;;;;;;;;;;;;
2022/12/21 06:43:28;;;;;;;;;;;;;;;;;;;;;
2022/12/21 06:46:18;;;;;;;4.40;1.05;;;5.60;99.90;;;;;;5069958;28;20092;-84
2022/12/21 06:49:18;;;;;;;3.47;1.27;;;5.60;99.90;;;;;;5060176;28;20048;-84
2022/12/21 06:52:46;;;;;;;;;;;;;;;;;;;;;
2022/12/21 06:55:59;;;;;;;2.55;0.80;;;5.70;99.90;;;;;;5029446;28;20577;-83
2022/12/21 06:59:36;;;;;;;;;;;;;;;;;;;;;
2022/12/21 07:02:48;;;;;;;;;;;;;;;;;;;;;
2022/12/21 07:05:50;;;;;;;3.42;1.10;;;5.60;99.90;;;;;;4971522;28;20090;-84
2022/12/21 07:09:08;;;;;;;;;;;;;;;;;;;;;
2022/12/21 07:12:32;;;;;;;3.22;1.27;;;5.60;99.90;;;;;;5071313;28;20075;-83
2022/12/21 07:15:44;;;;;;;;;;;;;;;;;;;;;
2022/12/21 07:19:00;;;;;;;;;;;;;;;;;;;;;
2022/12/21 07:22:18;;;;;;;6.82;1.80;;;5.60;99.90;;;;;;5046853;28;20069;-83
2022/12/21 07:25:48;;;;;;;4.32;1.45;;;5.60;99.90;;;;;;5031139;28;20053;-84
2022/12/21 07:28:55;;;;;;;3.08;1.17;;;5.90;99.90;;;;;;5042134;28;20044;-85
2022/12/21 07:32:06;;;;;;;5.40;2.05;;;5.50;99.90;;;;;;5017710;28;20154;-84
2022/12/21 07:35:16;;;;;;;3.58;1.33;;;5.50;99.90;;;;;;5050837;28;20425;-84
2022/12/21 07:37:57;;;;;;;5.00;1.48;;;5.50;99.90;;;;;;5047199;28;20424;-84
2022/12/21 07:40:55;;;;;;;4.60;1.60;;;5.60;99.90;;;;;;5030484;28;20044;-85
2022/12/21 07:44:06;;;;;;;;;;;;;;;;;;;;;
2022/12/21 07:47:38;;;;;;;5.50;1.65;;;5.60;99.90;;;;;;5030777;28;20056;-84
2022/12/21 07:51:04;;;;;;;;;;;;;;;;;;;;;
2022/12/21 07:54:33;;;;;;;4.67;1.70;;;5.60;99.90;;;;;;5050522;28;20472;-85
2022/12/21 07:57:42;;;;;;;;;;;;;;;;;;;;;
2022/12/21 08:00:27;;;;;;;7.18;2.08;;;5.70;99.90;;;;;;5045974;28;20052;-84
2022/12/21 08:03:01;;;;;;;6.72;2.17;;;5.60;99.90;;;;;;5050070;28;20044;-84
2022/12/21 08:05:48;;;;;;;4.57;1.80;;;5.70;99.90;;;;;;5067146;28;20145;-85
2022/12/21 08:08:35;;;;;;;4.72;1.75;;;5.70;99.90;;;;;;5122287;28;20062;-83
2022/12/21 08:11:30;;;;;;;7.55;1.88;;;5.80;99.90;;;;;;5131876;28;20504;-83
2022/12/21 08:14:41;;;;;;;8.60;2.50;;;6.40;99.90;;;;;;5132297;28;20388;-84
2022/12/21 08:17:56;;;;;;;;;;;;;;;;;;;;;
2022/12/21 08:20:48;;;;;;;9.52;2.45;;;5.80;99.90;;;;;;5133030;28;20559;-84
2022/12/21 08:23:38;;;;;;;10.20;2.88;;;5.80;99.90;;;;;;5113104;28;20043;-85
2022/12/21 08:26:37;;;;;;;10.20;3.00;;;5.80;99.90;;;;;;5113198;28;20096;-82
2022/12/21 08:29:35;;;;;;;11.85;3.38;;;5.70;99.90;;;;;;5133222;28;20109;-83
2022/12/21 08:32:31;;;;;;;7.88;2.92;;;5.80;99.90;;;;;;5080630;28;20040;-82
2022/12/21 08:35:34;;;;;;;15.70;4.20;;;5.80;99.90;;;;;;5134848;27;20054;-83
2022/12/21 08:38:34;;;;;;;13.02;4.30;;;5.80;99.90;;;;;;5135660;27;20043;-83
2022/12/21 08:41:34;;;;;;;11.60;4.50;;;5.70;99.90;;;;;;5136277;27;20058;-83
2022/12/21 08:44:33;;;;;;;10.10;4.28;;;5.80;99.90;;;;;;5136947;27;20472;-82
2022/12/21 08:47:33;;;;;;;10.48;4.10;;;5.80;99.90;;;;;;5118804;27;20090;-83
2022/12/21 08:50:26;;;;;;;12.43;4.82;;;5.80;99.90;;;;;;5134333;27;20395;-83
2022/12/21 08:53:33;;;;;;;;;;;;;;;;;;;;;
2022/12/21 08:56:17;;;;;;;18.58;6.18;;;5.90;99.90;;;;;;5136626;27;20124;-82
2022/12/21 08:58:57;;;;;;;12.75;4.57;;;6.00;99.90;;;;;;5118607;27;20396;-83
2022/12/21 09:01:50;;;;;;;14.20;4.82;;;6.00;99.90;;;;;;5136969;27;20043;-83
2022/12/21 09:04:51;;;;;;;13.52;5.28;;;6.10;99.90;;;;;;5114266;27;20043;-83
2022/12/21 09:07:48;;;;;;;14.15;7.55;;;6.10;99.90;;;;;;5135738;27;20083;-83
2022/12/21 09:10:49;;;;;;;12.13;5.13;;;6.20;99.90;;;;;;5134821;27;20039;-83
2022/12/21 09:13:51;;;;;;;12.30;6.25;;;6.20;99.90;;;;;;5115529;27;20515;-83
2022/12/21 09:16:49;;;;;;;11.48;8.07;;;6.20;99.90;;;;;;5133382;27;20043;-84
2022/12/21 09:19:49;;;;;;;10.50;4.47;;;6.20;99.90;;;;;;5135294;27;20059;-83
2022/12/21 09:22:46;;;;;;;;;;;;;;;;;;;;;
2022/12/21 09:25:33;;;;;;;9.52;5.38;;;6.20;99.90;;;;;;5136877;27;19926;-83
2022/12/21 09:28:52;;;;;;;90.40;85.00;;;6.30;99.90;;;;;;5136672;27;20047;-84
2022/12/21 09:31:52;;;;;;;;;;;;;;;;;;;;;
2022/12/21 09:34:52;;;;;;;205.48;188.27;;;6.40;99.90;;;;;;5136377;27;20112;-84
2022/12/21 09:37:53;;;;;;;335.02;307.25;;;6.40;99.90;;;;;;5135383;27;20055;-83
2022/12/21 09:40:50;;;;;;;;;;;;;;;;;;;;;
2022/12/21 09:44:11;;;;;;;129.30;121.57;;;6.40;99.90;;;;;;5114196;27;20499;-84
2022/12/21 09:47:24;;;;;;;26.88;24.10;;;6.40;99.90;;;;;;5032159;28;20093;-84
2022/12/21 09:50:35;;;;;;;33.30;30.48;;;6.50;99.90;;;;;;5031383;28;20045;-84
2022/12/21 09:53:39;;;;;;;107.47;100.97;;;6.50;99.90;;;;;;5031369;28;20038;-84
2022/12/21 09:56:58;;;;;;;;;;;;;;;;;;;;;
2022/12/21 10:00:04;;;;;;;;;;;;;;;;;;;;;
2022/12/21 10:03:21;;;;;;;;;;;;;;;;;;;;;
2022/12/21 10:06:54;;;;;;;;;;;;;;;;;;;;;
2022/12/21 10:10:36;;;;;;;;;;;;;;;;;;;;;
2022/12/21 10:14:02;;;;;;;109.57;102.72;;;6.50;99.90;;;;;;5032582;28;20576;-83
2022/12/21 10:17:12;;;;;;;49.05;45.17;;;6.60;99.90;;;;;;4983762;28;20046;-84
2022/12/21 10:20:49;;;;;;;;;;;;;;;;;;;;;
2022/12/21 10:24:10;;;;;;;19.73;7.22;;;6.70;99.90;;;;;;5094506;28;20048;-84
2022/12/21 10:27:35;;;;;;;;;;;;;;;;;;;;;
2022/12/21 10:30:22;;;;;;;17.23;7.35;;;6.80;99.90;;;;;;5093429;28;20106;-84
2022/12/21 10:33:23;;;;;;;32.10;10.23;;;6.90;99.90;;;;;;5094412;28;20086;-85
2022/12/21 10:36:19;;;;;;;55.13;49.90;;;6.90;99.90;;;;;;5092975;28;20059;-84
2022/12/21 10:39:21;;;;;;;195.90;181.30;;;6.90;99.90;;;;;;5093067;28;20132;-85
2022/12/21 10:42:19;;;;;;;383.05;351.55;;;7.00;99.90;;;;;;5075898;28;20524;-84
2022/12/21 10:45:19;;;;;;;40.60;15.38;;;7.00;99.90;;;;;;5075389;28;20126;-85
2022/12/21 10:47:58;;;;;;;187.82;172.35;;;7.10;99.90;;;;;;5093249;28;20075;-82
2022/12/21 10:51:04;;;;;;;29.58;10.98;;;7.10;99.90;;;;;;5099112;28;20205;-85
2022/12/21 10:54:15;;;;;;;85.70;79.07;;;7.20;99.90;;;;;;5112541;28;20055;-85
2022/12/21 10:56:58;;;;;;;131.30;121.82;;;7.20;99.90;;;;;;5094579;28;20040;-84
2022/12/21 11:00:16;;;;;;;105.95;55.05;;;7.20;99.90;;;;;;5114083;28;20047;-82
2022/12/21 11:03:00;;;;;;;27.45;9.00;;;7.20;99.90;;;;;;5082145;28;20039;-82
2022/12/21 11:05:47;;;;;;;23.27;11.98;;;7.30;99.90;;;;;;5113009;28;20063;-82
2022/12/21 11:08:34;;;;;;;53.75;44.42;;;7.30;99.90;;;;;;5112388;28;20396;-83
2022/12/21 11:11:34;;;;;;;541.67;387.70;;;7.30;99.90;;;;;;5113215;28;20492;-83
2022/12/21 11:14:35;;;;;;;60.25;55.80;;;7.30;99.90;;;;;;5112655;28;20087;-81
2022/12/21 11:17:20;;;;;;;21.85;9.77;;;7.50;99.90;;;;;;5106407;28;20131;-82
2022/12/21 11:20:34;;;;;;;35.30;31.48;;;7.40;99.90;;;;;;5091744;28;20190;-83
2022/12/21 11:23:07;;;;;;;57.60;52.72;;;7.50;99.90;;;;;;5106776;28;20082;-83
2022/12/21 11:25:49;;;;;;;20.13;8.07;;;7.50;99.90;;;;;;5112001;28;20500;-83
2022/12/21 11:28:50;;;;;;;20.50;8.63;;;7.50;99.90;;;;;;5112305;28;20081;-83
2022/12/21 11:32:03;;;;;;;228.98;210.48;;;7.50;99.90;;;;;;5017390;28;20054;-83
2022/12/21 11:35:20;;;;;;;24.00;11.32;;;7.60;99.90;;;;;;5031291;28;20128;-83
2022/12/21 11:38:34;;;;;;;21.80;8.80;;;7.70;99.90;;;;;;5031166;28;20526;-83
2022/12/21 11:41:41;;;;;;;42.08;38.35;;;7.80;99.90;;;;;;5029811;28;20402;-83
2022/12/21 11:44:36;;;;;;;162.55;67.43;;;7.80;99.90;;;;;;5013211;28;20058;-86
2022/12/21 11:47:37;;;;;;;25.80;8.32;;;7.80;99.90;;;;;;5031042;28;20053;-82
2022/12/21 11:50:39;;;;;;;21.90;8.20;;;7.80;99.90;;;;;;5010963;28;20434;-84
2022/12/21 11:53:27;;;;;;;18.77;7.57;;;7.80;99.90;;;;;;5011346;28;20108;-83
2022/12/21 11:55:55;;;;;;;27.48;9.45;;;7.80;99.90;;;;;;5045693;28;20057;-83
2022/12/21 11:58:29;;;;;;;154.95;65.22;;;7.80;99.90;;;;;;5050039;28;20075;-83
2022/12/21 12:01:10;;;;;;;22.15;7.82;;;7.90;99.90;;;;;;5050617;28;20041;-83
2022/12/21 12:03:44;;;;;;;707.30;359.50;;;7.90;99.90;;;;;;5050499;28;20092;-81
2022/12/21 12:06:10;;;;;;;28.25;8.18;;;7.90;99.90;;;;;;5050514;28;20095;-82
2022/12/21 12:08:55;;;;;;;18.50;7.20;;;7.90;99.90;;;;;;5054201;28;20448;-83
2022/12/21 12:11:57;;;;;;;767.87;382.40;;;7.90;99.90;;;;;;5076471;28;20044;-83
2022/12/21 12:14:55;;;;;;;728.30;370.92;;;8.00;99.90;;;;;;5058897;28;20098;-83
2022/12/21 12:17:58;;;;;;;605.28;339.45;;;8.00;99.90;;;;;;5076273;28;20037;-83
2022/12/21 12:20:36;;;;;;;58.30;24.90;;;8.10;99.90;;;;;;5076582;28;20049;-83
2022/12/21 12:23:15;;;;;;;15.40;5.68;;;8.10;99.90;;;;;;5075826;28;20056;-83
2022/12/21 12:25:50;;;;;;;16.13;6.40;;;8.20;99.90;;;;;;5086810;28;20118;-83
2022/12/21 12:29:02;;;;;;;20.20;5.63;;;8.20;99.90;;;;;;5096433;28;20488;-82
2022/12/21 12:31:41;;;;;;;480.35;231.63;;;8.20;99.90;;;;;;5096292;28;20044;-83
2022/12/21 12:34:34;;;;;;;585.55;295.42;;;8.20;99.90;;;;;;5096919;28;20131;-81
2022/12/21 12:37:31;;;;;;;17.75;6.28;;;8.30;99.90;;;;;;5096868;28;20044;-83
2022/12/21 12:40:19;;;;;;;18.83;5.50;;;8.20;99.90;;;;;;5078038;28;20462;-83
2022/12/21 12:43:00;;;;;;;17.58;5.40;;;8.10;99.90;;;;;;5095383;28;20059;-84
2022/12/21 12:45:38;;;;;;;19.17;6.00;;;8.10;99.90;;;;;;5096101;28;20079;-83
2022/12/21 12:48:26;;;;;;;16.77;4.35;;;8.10;99.90;;;;;;5096219;28;20047;-83
2022/12/21 12:51:29;;;;;;;15.32;5.35;;;8.10;99.90;;;;;;5101883;27;20052;-82
2022/12/21 12:54:31;;;;;;;14.00;4.13;;;8.10;99.90;;;;;;5136751;27;20039;-83
2022/12/21 12:57:31;;;;;;;21.10;5.97;;;8.10;99.90;;;;;;5136911;27;20055;-86
2022/12/21 13:00:50;;;;;;;;;;;;;;;;;;;;;
2022/12/21 13:04:05;;;;;;;18.00;5.47;;;8.20;99.90;;;;;;5136252;27;20054;-83
2022/12/21 13:07:22;;;;;;;;;;;;;;;;;;;;;
2022/12/21 13:10:40;;;;;;;;;;;;;;;;;;;;;
2022/12/21 13:13:59;;;;;;;19.13;5.97;;;8.20;99.90;;;;;;5135590;27;20067;-84
2022/12/21 13:17:10;;;;;;;22.85;6.70;;;8.20;99.90;;;;;;5083789;27;20345;-84
2022/12/21 13:19:56;;;;;;;21.92;5.78;;;8.20;99.90;;;;;;5134827;27;20043;-83
2022/12/21 13:23:12;;;;;;;;;;;;;;;;;;;;;
2022/12/21 13:26:36;;;;;;;21.48;6.35;;;8.20;99.90;;;;;;5136586;27;20047;-84
2022/12/21 13:29:56;;;;;;;;;;;;;;;;;;;;;
2022/12/21 13:32:45;;;;;;;;;;;8.30;99.90;;;;;;5137045;27;20043;-84
2022/12/21 13:36:04;;;;;;;13.75;5.50;;;8.30;99.90;;;;;;5136839;27;19919;-84
2022/12/21 13:39:26;;;;;;;13.82;6.28;;;8.30;99.90;;;;;;5136585;27;20050;-84
2022/12/21 13:42:33;;;;;;;697.33;360.50;;;8.40;99.90;;;;;;5136036;27;20099;-83
2022/12/21 13:46:05;;;;;;;26.73;7.65;;;8.40;99.90;;;;;;5136431;27;20047;-86
2022/12/21 13:49:24;;;;;;;22.92;9.07;;;8.50;99.90;;;;;;5117824;27;20051;-84
2022/12/21 13:52:43;;;;;;;19.25;8.25;;;8.50;99.90;;;;;;5112627;28;20453;-84
2022/12/21 13:56:34;;;;;;;26.13;9.57;;;8.40;99.90;;;;;;5113826;28;20050;-85
2022/12/21 13:59:36;;;;;;;25.35;10.18;;;8.40;99.90;;;;;;5008733;28;20038;-84
2022/12/21 14:02:35;;;;;;;18.42;8.90;;;8.50;99.90;;;;;;5015863;28;20064;-85
2022/12/21 14:05:29;;;;;;;24.33;9.77;;;8.40;99.90;;;;;;5031463;28;20080;-84
2022/12/21 14:08:52;;;;;;;;;;;;;;;;;;;;;
2022/12/21 14:12:20;;;;;;;24.83;9.82;;;8.40;99.90;;;;;;5012490;28;20061;-84
2022/12/21 14:15:46;;;;;;;20.90;9.63;;;8.40;99.90;;;;;;5006902;28;20125;-85
2022/12/21 14:19:04;;;;;;;22.80;8.18;;;8.50;99.90;;;;;;4954395;29;20055;-85
2022/12/21 14:22:02;;;;;;;21.30;10.05;;;8.30;99.90;;;;;;4954047;28;20054;-83
2022/12/21 14:24:46;;;;;;;20.67;10.43;;;8.30;99.90;;;;;;4972077;28;20510;-84
2022/12/21 14:27:28;;;;;;;18.02;8.63;;;8.30;99.90;;;;;;4956385;28;20047;-82
2022/12/21 14:30:54;;;;;;;18.52;8.20;;;8.30;99.90;;;;;;4972295;28;20490;-84
2022/12/21 14:34:05;;;;;;;108.78;98.45;;;8.20;99.90;;;;;;4933161;29;20094;-83
2022/12/21 14:37:30;;;;;;;;;;;;;;;;;;;;;
2022/12/21 14:40:48;;;;;;;382.00;271.98;;;8.20;99.90;;;;;;4914547;29;20064;-84
2022/12/21 14:43:39;;;;;;;18.42;8.45;;;8.20;99.90;;;;;;4915291;29;20522;-84
2022/12/21 14:46:30;;;;;;;20.15;8.25;;;8.20;99.90;;;;;;4920544;29;20135;-84
2022/12/21 14:49:45;;;;;;;582.70;295.52;;;8.10;99.90;;;;;;4943960;29;20063;-85
2022/12/21 14:53:12;;;;;;;;;;;;;;;;;;;;;
2022/12/21 14:56:36;;;;;;;27.33;10.65;;;8.40;99.90;;;;;;4972927;28;20051;-84
2022/12/21 14:59:35;;;;;;;16.10;8.52;;;8.10;99.90;;;;;;4959948;28;20125;-84
2022/12/21 15:02:44;;;;;;;17.08;9.32;;;8.10;99.90;;;;;;4975550;28;20051;-86
2022/12/21 15:05:37;;;;;;;16.60;9.02;;;8.00;99.90;;;;;;4990887;28;20089;-87
2022/12/21 15:08:35;;;;;;;25.33;9.70;;;8.20;99.90;;;;;;4989137;28;20573;-85
2022/12/21 15:11:24;;;;;;;25.33;9.13;;;8.00;99.90;;;;;;5132323;27;20093;-87
2022/12/21 15:15:00;;;;;;;21.48;8.55;;;8.00;99.90;;;;;;5132937;27;20469;-86
2022/12/21 15:17:56;;;;;;;;;;;;;;;;;;;;;
2022/12/21 15:21:21;;;;;;;16.98;7.95;;;7.90;99.90;;;;;;5051326;28;20056;-85
2022/12/21 15:24:40;;;;;;;;;;;;;;;;;;;;;
2022/12/21 15:27:50;;;;;;;17.00;7.15;;;7.80;99.90;;;;;;5051102;28;20045;-85
2022/12/21 15:31:05;;;;;;;12.60;6.93;;;7.80;99.90;;;;;;5050615;28;20095;-85
2022/12/21 15:34:03;;;;;;;21.25;7.32;;;7.80;99.90;;;;;;5033805;28;20087;-84
2022/12/21 15:37:29;;;;;;;;;;;;;;;;;;;;;
2022/12/21 15:40:56;;;;;;;;;;;;;;;;;;;;;
2022/12/21 15:44:16;;;;;;;;;;;;;;;;;;;;;
2022/12/21 15:47:24;;;;;;;14.85;7.43;;;7.80;99.90;;;;;;5050177;28;20084;-85
2022/12/21 15:50:42;;;;;;;;;;;;;;;;;;;;;
2022/12/21 15:54:20;;;;;;;;;;;;;;;;;;;;;
2022/12/21 15:57:52;;;;;;;437.60;378.65;;;8.10;99.90;;;;;;5113383;28;20051;-85
2022/12/21 16:01:15;;;;;;;;;;;;;;;;;;;;;
2022/12/21 16:04:40;;;;;;;;;;;;;;;;;;;;;
2022/12/21 16:07:58;;;;;;;39.92;36.58;;;7.70;99.90;;;;;;5113656;28;20043;-84
2022/12/21 16:11:30;;;;;;;;;;;;;;;;;;;;;
2022/12/21 16:14:46;;;;;;;;;;;;;;;;;;;;;
2022/12/21 16:18:16;;;;;;;23.85;7.53;;;7.70;99.90;;;;;;5113268;28;20087;-86
2022/12/21 16:21:28;;;;;;;27.88;21.40;;;7.70;99.90;;;;;;5112112;28;20083;-86
2022/12/21 16:24:25;;;;;;;19.50;9.60;;;7.70;99.90;;;;;;5112249;28;20109;-85
2022/12/21 16:28:06;;;;;;;44.50;40.55;;;7.60;99.90;;;;;;5113090;28;20044;-86
2022/12/21 16:31:40;;;;;;;25.25;20.17;;;7.60;99.90;;;;;;5113138;28;20044;-87
2022/12/21 16:34:59;;;;;;;21.23;9.73;;;7.60;99.90;;;;;;5113125;28;20123;-85
2022/12/21 16:38:26;;;;;;;;;;;;;;;;;;;;;
2022/12/21 16:41:50;;;;;;;21.88;9.52;;;7.60;99.90;;;;;;5113080;28;20047;-84
2022/12/21 16:45:12;;;;;;;;;;;;;;;;;;;;;
2022/12/21 16:48:43;;;;;;;20.52;9.73;;;7.60;99.90;;;;;;5112960;28;20055;-84
2022/12/21 16:51:52;;;;;;;;;;;;;;;;;;;;;
2022/12/21 16:55:30;;;;;;;30.30;13.52;;;7.50;99.90;;;;;;5131093;27;20058;-84
2022/12/21 16:58:46;;;;;;;;;;;;;;;;;;;;;
2022/12/21 17:02:14;;;;;;;25.20;11.55;;;7.50;99.90;;;;;;5114518;28;20059;-86
2022/12/21 17:04:51;;;;;;;36.28;24.70;;;7.40;99.90;;;;;;5112797;28;20113;-85
2022/12/21 17:08:04;;;;;;;35.70;29.02;;;7.50;99.90;;;;;;5113453;28;20564;-84
2022/12/21 17:11:32;;;;;;;;;;;;;;;;;;;;;
2022/12/21 17:14:32;;;;;;;94.90;86.35;;;7.40;99.90;;;;;;5114242;28;20409;-86
2022/12/21 17:17:42;;;;;;;662.28;395.23;;;7.40;99.90;;;;;;5112976;28;20046;-85
2022/12/21 17:20:48;;;;;;;;;;;;;;;;;;;;;
2022/12/21 17:24:18;;;;;;;406.23;264.83;;;7.40;99.90;;;;;;5111407;28;20044;-87
2022/12/21 17:31:06;;;;;;;;;;;;;;;;;;;;;
2022/12/21 17:34:26;;;;;;;324.38;256.00;;;7.40;99.90;;;;;;5115909;28;20047;-86
2022/12/21 17:37:48;;;;;;;;;;;;;;;;;;;;;
2022/12/21 17:41:12;;;;;;;431.50;364.80;;;8.10;99.90;;;;;;5115889;28;20101;-85
2022/12/21 17:44:30;;;;;;;616.08;353.42;;;7.40;99.90;;;;;;5073124;28;20055;-86
2022/12/21 17:47:48;;;;;;;;;;;;;;;;;;;;;
2022/12/21 17:51:10;;;;;;;;;;;;;;;;;;;;;
2022/12/21 17:54:34;;;;;;;379.10;340.95;;;7.40;99.90;;;;;;5090916;28;20432;-85
2022/12/21 18:01:26;;;;;;;;;;;;;;;;;;;;;
2022/12/21 18:04:44;;;;;;;;;;;;;;;;;;;;;
2022/12/21 18:07:52;;;;;;;554.25;369.40;;;7.40;99.90;;;;;;5051993;28;20532;-87
2022/12/21 18:10:32;;;;;;;567.90;331.77;;;7.40;99.90;;;;;;5017569;28;20545;-86
2022/12/21 18:14:02;;;;;;;585.20;390.23;;;7.40;99.90;;;;;;5033545;28;20410;-87
2022/12/21 18:17:16;;;;;;;206.27;190.50;;;7.30;99.90;;;;;;5032322;28;20449;-86
2022/12/21 18:20:38;;;;;;;335.55;253.82;;;7.40;99.90;;;;;;4987136;28;20396;-87
2022/12/21 18:24:26;;;;;;;;;;;;;;;;;;;;;
2022/12/21 18:27:38;;;;;;;;;;;;;;;;;;;;;
2022/12/21 18:31:02;;;;;;;;;;;;;;;;;;;;;
2022/12/21 18:34:16;;;;;;;;;;;;;;;;;;;;;
2022/12/21 18:37:52;;;;;;;;;;;;;;;;;;;;;
2022/12/21 18:41:14;;;;;;;587.47;328.83;;;7.40;99.90;;;;;;5002143;28;20124;-85
2022/12/21 18:44:25;;;;;;;630.65;379.20;;;7.30;99.90;;;;;;5051954;28;20052;-87
2022/12/21 18:47:34;;;;;;;632.03;342.65;;;7.40;99.90;;;;;;5002150;28;20052;-87
2022/12/21 18:50:52;;;;;;;594.80;325.83;;;7.40;99.90;;;;;;5056162;28;20055;-86
2022/12/21 18:53:55;;;;;;;613.35;333.15;;;7.30;99.90;;;;;;5113443;28;20416;-87
2022/12/21 18:57:36;;;;;;;643.80;388.65;;;7.30;99.90;;;;;;5093912;28;20052;-86
2022/12/21 19:00:43;;;;;;;615.17;381.63;;;7.30;99.90;;;;;;5092799;28;20040;-87
2022/12/21 19:04:00;;;;;;;667.63;384.60;;;8.10;99.90;;;;;;5092702;28;20048;-86
2022/12/21 19:07:06;;;;;;;680.45;381.98;;;7.30;99.90;;;;;;5093834;28;20051;-87
2022/12/21 19:10:24;;;;;;;669.20;348.90;;;7.30;99.90;;;;;;5094006;28;20515;-88
2022/12/21 19:13:52;;;;;;;;;;;;;;;;;;;;;
2022/12/21 19:17:20;;;;;;;705.13;390.17;;;7.30;99.90;;;;;;5093405;28;20051;-88
2022/12/21 19:20:26;;;;;;;;;;;;;;;;;;;;;
2022/12/21 19:24:00;;;;;;;688.08;358.58;;;7.30;99.90;;;;;;5093507;28;20409;-87
2022/12/21 19:27:21;;;;;;;794.37;400.87;;;8.00;99.90;;;;;;5093270;28;20447;-86
2022/12/21 19:30:34;;;;;;;838.87;415.87;;;7.30;99.90;;;;;;5093490;28;20040;-87
2022/12/21 19:33:46;;;;;;;737.00;376.45;;;7.40;99.90;;;;;;5092988;28;20051;-87
2022/12/21 19:37:22;;;;;;;;;;;;;;;;;;;;;
2022/12/21 19:41:02;;;;;;;;;;;;;;;;;;;;;
2022/12/21 19:44:10;;;;;;;662.75;352.35;;;7.60;99.90;;;;;;5093436;28;20525;-86